Time;durP1;ratioP1;P1;durP2;ratioP2;P2;SDS_P1;SDS_P2;PMS_P1;PMS_P2;Temp;Humidity;BMP_temperature;BMP_pressure;BME280_temperature;BME280_humidity;BME280_pressure;Samples;Min_cycle;Max_cycle;Signal;HPM_P1;HPM_P2
2024/01/21 00:01:47;;;;;;;;;;;;;;;-2.51;100.00;93871.75;5059118;28;19924;-76
2024/01/21 00:04:14;;;;;;;;;;;;;;;-2.23;100.00;93877.25;5062301;28;19935;-76
2024/01/21 00:06:41;;;;;;;;;;;;;;;-2.34;100.00;93870.47;5063962;28;19924;-77
2024/01/21 00:09:07;;;;;;;;;;;;;;;-2.31;100.00;93871.03;5062656;28;19931;-77
2024/01/21 00:11:34;;;;;;;;;;;;;;;-2.22;100.00;93879.63;5061233;28;19921;-76
2024/01/21 00:14:02;;;;;;;;;;;;;;;-2.18;100.00;93880.22;5066018;28;21109;-77
2024/01/21 00:16:29;;;;;;;;;;;;;;;-2.09;100.00;93883.75;5066025;28;19924;-77
2024/01/21 00:18:55;;;;;;;;;;;;;;;-1.65;100.00;93887.13;5062457;28;20015;-77
2024/01/21 00:21:22;;;;;;;;;;;;;;;-1.78;100.00;93884.75;5066501;28;19924;-77
2024/01/21 00:23:49;;;;;;;;;;;;;;;-2.15;100.00;93887.53;5064701;28;20010;-77
2024/01/21 00:26:15;;;;;;;;;;;;;;;-2.38;100.00;93895.06;5064322;28;19921;-76
2024/01/21 00:28:42;;;;;;;;;;;;;;;-2.33;100.00;93903.09;5064344;28;19951;-77
2024/01/21 00:31:10;;;;;;;;;;;;;;;-2.43;100.00;93887.88;5062123;28;20426;-76
2024/01/21 00:33:37;;;;;;;;;;;;;;;-2.35;100.00;93887.31;5062585;28;20331;-77
2024/01/21 00:36:03;;;;;;;;;;;;;;;-2.23;100.00;93894.88;5061268;28;20868;-77
2024/01/21 00:38:30;;;;;;;;;;;;;;;-2.12;100.00;93889.00;5060712;28;20417;-76
2024/01/21 00:40:57;;;;;;;;;;;;;;;-1.99;100.00;93891.41;5068094;28;19920;-77
2024/01/21 00:43:23;;;;;;;;;;;;;;;-2.05;100.00;93895.19;5066440;28;19974;-76
2024/01/21 00:45:51;;;;;;;;;;;;;;;-1.89;100.00;93899.88;5061772;28;19920;-76
2024/01/21 00:48:19;;;;;;;;;;;;;;;-2.28;100.00;93912.81;5064525;28;19966;-77
2024/01/21 00:50:46;;;;;;;;;;;;;;;-1.71;100.00;93901.91;5067422;28;19920;-78
2024/01/21 00:53:13;;;;;;;;;;;;;;;-1.47;100.00;93901.75;5063335;28;19924;-77
2024/01/21 00:55:40;;;;;;;;;;;;;;;-1.44;100.00;93898.97;5061352;28;19963;-77
2024/01/21 00:58:06;;;;;;;;;;;;;;;-1.94;100.00;93899.41;5062813;28;19924;-77
2024/01/21 01:00:33;;;;;;;;;;;;;;;-1.51;100.00;93903.72;5065932;28;19950;-78
2024/01/21 01:03:00;;;;;;;;;;;;;;;-1.45;100.00;93906.69;5066051;28;20234;-78
2024/01/21 01:05:29;;;;;;;;;;;;;;;-1.50;100.00;93907.00;5061708;28;19924;-77
2024/01/21 01:07:55;;;;;;;;;;;;;;;-1.53;100.00;93913.09;5066709;28;19927;-78
2024/01/21 01:10:22;;;;;;;;;;;;;;;-1.50;100.00;93907.81;5063318;28;20281;-78
2024/01/21 01:12:49;;;;;;;;;;;;;;;-1.75;100.00;93908.91;5061508;28;20386;-78
2024/01/21 01:15:15;;;;;;;;;;;;;;;-1.63;100.00;93909.66;5067071;28;19920;-78
2024/01/21 01:17:42;;;;;;;;;;;;;;;-1.85;100.00;93910.50;5060432;28;20016;-77
2024/01/21 01:20:09;;;;;;;;;;;;;;;-1.44;100.00;93898.97;5062070;28;19920;-77
2024/01/21 01:22:37;;;;;;;;;;;;;;;-1.22;100.00;93903.16;5064677;28;20023;-78
2024/01/21 01:25:04;;;;;;;;;;;;;;;-1.45;100.00;93909.19;5064379;28;19920;-78
2024/01/21 01:27:30;;;;;;;;;;;;;;;-1.42;100.00;93898.84;5061047;28;19963;-78
2024/01/21 01:29:57;;;;;;;;;;;;;;;-1.57;100.00;93913.44;5062622;28;19930;-79
2024/01/21 01:32:24;;;;;;;;;;;;;;;-1.57;100.00;93906.66;5063158;28;19921;-78
2024/01/21 01:34:53;;;;;;;;;;;;;;;-1.46;100.00;93905.03;5064126;28;19920;-78
2024/01/21 01:37:20;;;;;;;;;;;;;;;-1.49;100.00;93911.13;5058866;28;19924;-78
2024/01/21 01:39:48;;;;;;;;;;;;;;;-1.33;100.00;93910.75;5063084;28;19920;-78
2024/01/21 01:42:14;;;;;;;;;;;;;;;-1.26;100.00;93901.78;5063383;28;19943;-78
2024/01/21 01:44:42;;;;;;;;;;;;;;;-1.06;100.00;93901.97;5063361;28;19924;-77
2024/01/21 01:47:09;;;;;;;;;;;;;;;-1.09;100.00;93915.59;5058364;28;19927;-78
2024/01/21 01:49:37;;;;;;;;;;;;;;;-1.01;100.00;93906.63;5064130;28;19924;-78
2024/01/21 01:52:04;;;;;;;;;;;;;;;-1.43;99.11;93907.34;5066542;28;19921;-78
2024/01/21 01:54:31;;;;;;;;;;;;;;;-1.71;99.30;93902.69;5063957;28;19924;-77
2024/01/21 01:56:59;;;;;;;;;;;;;;;-1.71;99.65;93907.72;5066922;28;19928;-79
2024/01/21 01:59:26;;;;;;;;;;;;;;;-1.70;98.21;93895.94;5067305;28;20346;-78
2024/01/21 02:01:53;;;;;;;;;;;;;;;-1.92;100.00;93910.97;5061024;28;20014;-78
2024/01/21 02:04:22;;;;;;;;;;;;;;;-1.50;100.00;93917.91;5062466;28;19931;-79
2024/01/21 02:06:49;;;;;;;;;;;;;;;-1.46;98.54;93912.59;5058907;28;19921;-77
2024/01/21 02:09:16;;;;;;;;;;;;;;;-1.26;98.04;93914.41;5063856;28;20394;-78
2024/01/21 02:11:43;;;;;;;;;;;;;;;-1.11;98.81;93922.47;5065041;28;20003;-79
2024/01/21 02:14:12;;;;;;;;;;;;;;;-0.88;100.00;93917.34;5065223;28;19924;-75
2024/01/21 02:16:39;;;;;;;;;;;;;;;-0.73;100.00;93922.91;5062412;28;19925;-76
2024/01/21 02:19:07;;;;;;;;;;;;;;;-0.58;100.00;93918.34;5064801;28;20020;-76
2024/01/21 02:21:34;;;;;;;;;;;;;;;-0.51;99.90;93922.88;5064926;28;19924;-76
2024/01/21 02:24:03;;;;;;;;;;;;;;;-0.51;98.76;93933.00;5065617;28;19946;-75
2024/01/21 02:26:29;;;;;;;;;;;;;;;-0.56;96.74;93935.88;5061831;28;19931;-75
2024/01/21 02:28:56;;;;;;;;;;;;;;;-1.05;95.66;93935.53;5063872;28;20827;-75
2024/01/21 02:31:25;;;;;;;;;;;;;;;-0.94;99.06;93938.00;5065308;28;19927;-79
2024/01/21 02:33:51;;;;;;;;;;;;;;;-1.17;96.43;93943.13;5061237;28;20294;-79
2024/01/21 02:36:18;;;;;;;;;;;;;;;-0.86;98.33;93945.78;5054235;28;20278;-78
2024/01/21 02:38:45;;;;;;;;;;;;;;;-1.59;99.72;93937.97;5060655;28;19931;-78
2024/01/21 02:41:13;;;;;;;;;;;;;;;-1.83;100.00;93938.88;5066191;28;20006;-78
2024/01/21 02:43:39;;;;;;;;;;;;;;;-1.69;99.81;93945.41;5061821;28;19931;-78
2024/01/21 02:46:06;;;;;;;;;;;;;;;-1.36;100.00;93943.75;5063003;28;19920;-79
2024/01/21 02:48:33;;;;;;;;;;;;;;;-1.19;100.00;93939.13;5062845;28;19931;-79
2024/01/21 02:50:59;;;;;;;;;;;;;;;-0.97;100.00;93943.31;5059034;28;20056;-78
2024/01/21 02:53:26;;;;;;;;;;;;;;;-0.87;100.00;93946.69;5064437;28;19924;-78
2024/01/21 02:55:52;;;;;;;;;;;;;;;-0.79;100.00;93947.81;5065865;28;19920;-78
2024/01/21 02:58:20;;;;;;;;;;;;;;;-0.90;99.10;93951.97;5062249;28;19924;-79
2024/01/21 03:00:48;;;;;;;;;;;;;;;-0.89;98.94;93958.63;5059992;28;20465;-78
2024/01/21 03:03:15;;;;;;;;;;;;;;;-0.94;98.01;93955.66;5063728;28;19926;-79
2024/01/21 03:05:41;;;;;;;;;;;;;;;-0.84;98.93;93966.63;5061380;28;20035;-78
2024/01/21 03:08:09;;;;;;;;;;;;;;;-0.76;98.99;93966.03;5061800;28;19927;-78
2024/01/21 03:10:35;;;;;;;;;;;;;;;-0.76;99.08;93962.69;5065509;28;19968;-78
2024/01/21 03:13:02;;;;;;;;;;;;;;;-0.87;97.41;93971.13;5064212;28;20677;-78
2024/01/21 03:15:30;;;;;;;;;;;;;;;-0.76;100.00;93967.72;5062743;28;19975;-78
2024/01/21 03:17:57;;;;;;;;;;;;;;;-0.73;99.04;93967.50;5058819;28;19921;-78
2024/01/21 03:20:23;;;;;;;;;;;;;;;-0.74;96.89;93976.78;5058262;28;19926;-78
2024/01/21 03:22:50;;;;;;;;;;;;;;;-1.18;96.51;93984.38;5062677;28;19943;-78
2024/01/21 03:25:16;;;;;;;;;;;;;;;-2.23;100.00;93977.91;5063000;28;19920;-78
2024/01/21 03:27:43;;;;;;;;;;;;;;;-2.18;100.00;93980.91;5062626;28;19931;-78
2024/01/21 03:30:10;;;;;;;;;;;;;;;-2.04;100.00;93984.91;5063821;28;19921;-78
2024/01/21 03:32:38;;;;;;;;;;;;;;;-2.29;100.00;93991.72;5060080;28;20018;-78
2024/01/21 03:35:05;;;;;;;;;;;;;;;-3.02;100.00;93992.63;5058346;28;19924;-78
2024/01/21 03:37:32;;;;;;;;;;;;;;;-2.90;100.00;93985.97;5063055;28;19924;-78
2024/01/21 03:39:59;;;;;;;;;;;;;;;-2.52;100.00;93993.38;5062543;28;19960;-79
2024/01/21 03:42:25;;;;;;;;;;;;;;;-2.71;100.00;93987.97;5068769;28;19924;-79
2024/01/21 03:44:54;;;;;;;;;;;;;;;-2.71;100.00;93995.53;5067619;28;19920;-79
2024/01/21 03:47:21;;;;;;;;;;;;;;;-2.58;100.00;93987.88;5064857;28;19920;-78
2024/01/21 03:49:51;;;;;;;;;;;;;;;-3.02;100.00;93990.13;5064693;28;20396;-79
2024/01/21 03:52:17;;;;;;;;;;;;;;;-2.77;100.00;93992.63;5064366;28;19936;-78
2024/01/21 03:54:44;;;;;;;;;;;;;;;-2.67;100.00;93992.78;5065430;28;19930;-78
2024/01/21 03:57:11;;;;;;;;;;;;;;;-2.56;100.00;93996.13;5060039;28;20035;-78
2024/01/21 03:59:39;;;;;;;;;;;;;;;-2.43;100.00;94000.28;5067233;28;20006;-78
2024/01/21 04:02:06;;;;;;;;;;;;;;;-2.12;100.00;93998.06;5060420;28;20297;-78
2024/01/21 04:04:32;;;;;;;;;;;;;;;-1.96;100.00;94009.50;5063265;28;20383;-78
2024/01/21 04:07:01;;;;;;;;;;;;;;;-1.88;100.00;94013.09;5064924;28;19930;-78
2024/01/21 04:09:31;;;;;;;;;;;;;;;-1.72;100.00;94019.47;5066432;28;19939;-78
2024/01/21 04:11:57;;;;;;;;;;;;;;;-1.69;100.00;94026.00;5063541;28;19921;-79
2024/01/21 04:14:24;;;;;;;;;;;;;;;-2.46;100.00;94028.97;5062259;28;19927;-78
2024/01/21 04:16:52;;;;;;;;;;;;;;;-2.51;100.00;94028.50;5064318;28;19921;-78
2024/01/21 04:19:19;;;;;;;;;;;;;;;-2.67;100.00;94031.31;5067235;28;19974;-78
2024/01/21 04:21:46;;;;;;;;;;;;;;;-2.88;100.00;94031.13;5068580;28;19998;-78
2024/01/21 04:24:14;;;;;;;;;;;;;;;-2.64;100.00;94028.56;5064867;28;19947;-78
2024/01/21 04:26:40;;;;;;;;;;;;;;;-2.70;100.00;94037.34;5065451;28;19924;-78
2024/01/21 04:29:07;;;;;;;;;;;;;;;-2.45;100.00;94038.13;5064170;28;19927;-78
2024/01/21 04:31:33;;;;;;;;;;;;;;;-2.28;100.00;94034.41;5064569;28;19947;-78
2024/01/21 04:34:00;;;;;;;;;;;;;;;-2.34;100.00;94041.59;5060710;28;20695;-78
2024/01/21 04:36:27;;;;;;;;;;;;;;;-2.36;100.00;94043.44;5061368;28;19924;-79
2024/01/21 04:38:54;;;;;;;;;;;;;;;-2.35;100.00;94047.53;5063449;28;19924;-79
2024/01/21 04:41:22;;;;;;;;;;;;;;;-2.28;100.00;94048.69;5066452;28;19992;-79
2024/01/21 04:43:48;;;;;;;;;;;;;;;-2.19;100.00;94043.00;5063409;28;20396;-79
2024/01/21 04:46:15;;;;;;;;;;;;;;;-2.16;100.00;94045.28;5067007;28;20011;-79
2024/01/21 04:48:42;;;;;;;;;;;;;;;-2.09;100.00;94053.22;5061349;28;19924;-79
2024/01/21 04:51:08;;;;;;;;;;;;;;;-2.09;100.00;94057.47;5065104;28;19925;-78
2024/01/21 04:53:37;;;;;;;;;;;;;;;-2.09;100.00;94055.72;5066021;28;20324;-77
2024/01/21 04:56:04;;;;;;;;;;;;;;;-2.12;99.46;94065.22;5066440;28;19927;-77
2024/01/21 04:58:32;;;;;;;;;;;;;;;-2.23;98.66;94063.50;5065489;28;19924;-77
2024/01/21 05:00:59;;;;;;;;;;;;;;;-2.55;100.00;94059.81;5066855;28;19927;-78
2024/01/21 05:03:25;;;;;;;;;;;;;;;-2.46;100.00;94060.91;5061173;28;19924;-78
2024/01/21 05:05:52;;;;;;;;;;;;;;;-2.36;100.00;94069.38;5063200;28;19920;-78
2024/01/21 05:08:19;;;;;;;;;;;;;;;-2.43;100.00;94065.69;5058499;28;19930;-79
2024/01/21 05:10:46;;;;;;;;;;;;;;;-2.36;100.00;94063.56;5064388;28;19925;-78
2024/01/21 05:13:12;;;;;;;;;;;;;;;-2.77;99.14;94068.06;5063788;28;19995;-79
2024/01/21 05:15:40;;;;;;;;;;;;;;;-2.48;100.00;94070.25;5066273;28;19920;-79
2024/01/21 05:18:07;;;;;;;;;;;;;;;-2.35;100.00;94068.47;5064080;28;19925;-79
2024/01/21 05:20:34;;;;;;;;;;;;;;;-2.27;100.00;94075.47;5064845;28;20377;-79
2024/01/21 05:23:00;;;;;;;;;;;;;;;-2.22;100.00;94073.41;5064973;28;20382;-79
2024/01/21 05:25:27;;;;;;;;;;;;;;;-2.23;100.00;94086.13;5059649;28;19924;-78
2024/01/21 05:27:54;;;;;;;;;;;;;;;-2.19;100.00;94080.75;5064758;28;19935;-79
2024/01/21 05:30:20;;;;;;;;;;;;;;;-2.13;100.00;94099.66;5063028;28;19924;-79
2024/01/21 05:32:50;;;;;;;;;;;;;;;-2.12;100.00;94102.97;5066553;28;20007;-79
2024/01/21 05:35:18;;;;;;;;;;;;;;;-2.16;100.00;94102.41;5063688;28;20293;-79
2024/01/21 05:37:45;;;;;;;;;;;;;;;-2.34;100.00;94114.56;5063605;28;19970;-79
2024/01/21 05:40:11;;;;;;;;;;;;;;;-2.36;100.00;94102.09;5063762;28;19934;-79
2024/01/21 05:42:38;;;;;;;;;;;;;;;-2.32;100.00;94118.59;5060517;28;19929;-79
2024/01/21 05:45:05;;;;;;;;;;;;;;;-2.62;100.00;94113.97;5063332;28;19931;-78
2024/01/21 05:47:32;;;;;;;;;;;;;;;-2.61;100.00;94118.91;5065369;28;20007;-78
2024/01/21 05:50:00;;;;;;;;;;;;;;;-2.69;100.00;94106.06;5065869;28;20386;-78
2024/01/21 05:52:26;;;;;;;;;;;;;;;-2.83;100.00;94119.56;5066841;28;19954;-78
2024/01/21 05:54:53;;;;;;;;;;;;;;;-2.76;100.00;94125.81;5063835;28;19924;-78
2024/01/21 05:57:20;;;;;;;;;;;;;;;-2.71;100.00;94122.97;5066455;28;19924;-78
2024/01/21 05:59:46;;;;;;;;;;;;;;;-2.69;100.00;94126.16;5067360;28;20027;-78
2024/01/21 06:02:13;;;;;;;;;;;;;;;-2.69;100.00;94123.66;5060596;28;19920;-78
2024/01/21 06:04:40;;;;;;;;;;;;;;;-2.82;100.00;94141.31;5059451;28;19924;-78
2024/01/21 06:07:08;;;;;;;;;;;;;;;-3.32;100.00;94138.78;5061298;28;19921;-78
2024/01/21 06:09:35;;;;;;;;;;;;;;;-3.58;100.00;94136.25;5065826;28;19921;-78
2024/01/21 06:12:02;;;;;;;;;;;;;;;-3.86;100.00;94146.38;5062888;28;19924;-78
2024/01/21 06:14:35;;;;;;;;;;;;;;;-4.23;100.00;94142.00;5064326;28;19935;-78
2024/01/21 06:17:02;;;;;;;;;;;;;;;-4.23;100.00;94139.50;5059691;28;20827;-78
2024/01/21 06:19:29;;;;;;;;;;;;;;;-4.18;100.00;94141.69;5063481;28;19924;-77
2024/01/21 06:21:55;;;;;;;;;;;;;;;-4.77;100.00;94140.31;5063917;28;19974;-77
2024/01/21 06:24:23;;;;;;;;;;;;;;;-4.47;100.00;94137.63;5063148;28;20651;-77
2024/01/21 06:26:52;;;;;;;;;;;;;;;-4.38;100.00;94136.25;5061992;28;19925;-75
2024/01/21 06:29:19;;;;;;;;;;;;;;;-4.61;100.00;94143.47;5062055;28;19925;-75
2024/01/21 06:31:45;;;;;;;;;;;;;;;-4.34;100.00;94147.69;5064424;28;20392;-75
2024/01/21 06:34:12;;;;;;;;;;;;;;;-4.00;100.00;94154.78;5057954;28;19925;-77
2024/01/21 06:36:39;;;;;;;;;;;;;;;-3.99;100.00;94163.16;5062900;28;19924;-78
2024/01/21 06:39:05;;;;;;;;;;;;;;;-3.64;100.00;94153.34;5065465;28;19924;-77
2024/01/21 06:41:33;;;;;;;;;;;;;;;-4.61;100.00;94162.72;5062220;28;20059;-78
2024/01/21 06:44:00;;;;;;;;;;;;;;;-5.03;100.00;94165.22;5064240;28;19931;-78
2024/01/21 06:46:27;;;;;;;;;;;;;;;-4.39;100.00;94151.38;5061981;28;19931;-78
2024/01/21 06:48:53;;;;;;;;;;;;;;;-4.33;100.00;94163.53;5063956;28;19921;-78
2024/01/21 06:51:31;;;;;;;;;;;;;;;-4.24;100.00;94167.19;5065989;28;20013;-78
2024/01/21 06:53:59;;;;;;;;;;;;;;;-3.74;100.00;94174.94;5065657;28;20917;-78
2024/01/21 06:56:25;;;;;;;;;;;;;;;-3.69;100.00;94172.94;5064056;28;19932;-78
2024/01/21 06:58:53;;;;;;;;;;;;;;;-3.67;100.00;94187.88;5065697;28;19924;-78
2024/01/21 07:01:20;;;;;;;;;;;;;;;-3.60;100.00;94188.31;5065209;28;19924;-77
2024/01/21 07:03:47;;;;;;;;;;;;;;;-3.94;100.00;94194.56;5064247;28;19924;-78
2024/01/21 07:06:13;;;;;;;;;;;;;;;-3.58;100.00;94183.97;5058227;28;19924;-78
2024/01/21 07:08:40;;;;;;;;;;;;;;;-3.55;100.00;94191.31;5061190;28;19931;-77
2024/01/21 07:11:07;;;;;;;;;;;;;;;-3.14;100.00;94189.53;5058883;28;20011;-78
2024/01/21 07:13:34;;;;;;;;;;;;;;;-2.93;100.00;94186.50;5061643;28;19931;-78
2024/01/21 07:16:02;;;;;;;;;;;;;;;-2.55;100.00;94198.16;5065152;28;19924;-76
2024/01/21 07:18:29;;;;;;;;;;;;;;;-2.38;100.00;94206.28;5061050;28;20007;-77
2024/01/21 07:20:55;;;;;;;;;;;;;;;-2.12;100.00;94199.44;5067446;28;19927;-79
2024/01/21 07:23:22;;;;;;;;;;;;;;;-2.21;99.69;94216.00;5067893;28;19924;-78
2024/01/21 07:25:49;;;;;;;;;;;;;;;-1.92;99.40;94209.81;5062946;28;19927;-77
2024/01/21 07:28:16;;;;;;;;;;;;;;;-1.60;98.70;94219.34;5065069;28;19924;-78
2024/01/21 07:30:43;;;;;;;;;;;;;;;-1.39;97.25;94222.00;5057804;28;19986;-77
2024/01/21 07:33:11;;;;;;;;;;;;;;;-1.21;96.72;94219.06;5064613;28;19920;-77
2024/01/21 07:35:38;;;;;;;;;;;;;;;-1.16;95.45;94222.06;5066336;28;19924;-77
2024/01/21 07:38:05;;;;;;;;;;;;;;;-1.07;94.99;94220.56;5060728;28;19928;-76
2024/01/21 07:40:31;;;;;;;;;;;;;;;-0.85;94.46;94226.56;5060583;28;20340;-77
2024/01/21 07:43:07;;;;;;;;;;;;;;;-0.81;92.92;94226.22;5058119;28;19931;-77
2024/01/21 07:45:57;;;;;;;;;;;;;;;-0.96;93.71;94228.16;5060789;28;19930;-78
2024/01/21 07:48:26;;;;;;;;;;;;;;;-0.47;93.00;94224.59;5051622;28;19930;-76
2024/01/21 07:50:52;;;;;;;;;;;;;;;-0.27;92.83;94228.13;5056162;28;19928;-76
2024/01/21 07:53:19;;;;;;;;;;;;;;;-0.27;92.57;94225.59;5055191;28;19954;-76
2024/01/21 07:55:47;;;;;;;;;;;;;;;-0.24;92.17;94224.56;5056799;28;21264;-76
2024/01/21 07:58:15;;;;;;;;;;;;;;;-0.23;91.41;94232.00;5055381;28;20558;-77
2024/01/21 08:00:41;;;;;;;;;;;;;;;-0.07;91.29;94230.81;5053807;28;19927;-78
2024/01/21 08:03:08;;;;;;;;;;;;;;;-0.07;90.65;94243.47;5051574;28;19924;-77
2024/01/21 08:05:36;;;;;;;;;;;;;;;-0.04;89.09;94235.66;5051200;28;20275;-77
2024/01/21 08:08:03;;;;;;;;;;;;;;;0.08;90.52;94236.41;5054108;28;20333;-78
2024/01/21 08:10:29;;;;;;;;;;;;;;;0.18;90.69;94234.78;5055571;28;19924;-80
2024/01/21 08:12:56;;;;;;;;;;;;;;;0.27;nan;94240.81;5061422;28;19920;-78
2024/01/21 08:15:23;;;;;;;;;;;;;;;0.29;88.38;94246.59;5050773;28;19930;-79
2024/01/21 08:17:49;;;;;;;;;;;;;;;0.37;87.57;94238.41;5056004;28;20032;-79
2024/01/21 08:20:25;;;;;;;;;;;;;;;0.47;88.53;94246.03;5051382;28;19925;-78
2024/01/21 08:26:02;;;;;;;;;;;;;;;-0.28;87.62;94250.03;4977338;28;19925;-79
2024/01/21 08:31:43;;;;;;;;;;;;;;;-0.71;88.22;94251.56;5009482;28;20382;-79
2024/01/21 08:34:18;;;;;;;;;;;;;;;-0.49;87.79;94252.47;5009993;28;19925;-79
2024/01/21 08:36:52;;;;;;;;;;;;;;;-0.43;86.44;94262.13;5009450;28;19925;-79
2024/01/21 08:39:19;;;;;;;;;;;;;;;-0.11;88.97;94260.56;5018500;28;19970;-79
2024/01/21 08:41:54;;;;;;;;;;;;;;;0.04;88.89;94257.81;5051733;28;20260;-79
2024/01/21 08:44:32;;;;;;;;;;;;;;;0.12;88.07;94268.09;5051345;28;20007;-79
2024/01/21 08:47:10;;;;;;;;;;;;;;;0.15;89.39;94262.81;5051366;28;20031;-80
2024/01/21 08:49:41;;;;;;;;;;;;;;;-0.07;88.78;94272.06;5051459;28;19934;-80
2024/01/21 08:52:11;;;;;;;;;;;;;;;0.23;89.57;94264.75;5051501;28;19968;-80
2024/01/21 08:54:42;;;;;;;;;;;;;;;0.33;90.16;94258.03;5052190;28;19967;-80
2024/01/21 08:57:13;;;;;;;;;;;;;;;0.46;89.42;94260.41;5053189;28;19933;-79
2024/01/21 09:03:01;;;;;;;;;;;;;;;0.86;86.56;94263.19;5051252;28;19928;-80
2024/01/21 09:05:33;;;;;;;;;;;;;;;0.67;88.55;94254.56;5050771;28;20434;-80
2024/01/21 09:08:07;;;;;;;;;;;;;;;0.78;86.53;94263.81;5050992;28;19924;-81
2024/01/21 09:10:34;;;;;;;;;;;;;;;0.77;86.27;94257.97;5051882;28;19935;-81
2024/01/21 09:13:19;;;;;;;;;;;;;;;0.73;87.37;94256.59;5050589;28;19928;-80
2024/01/21 09:15:59;;;;;;;;;;;;;;;0.89;86.75;94256.16;5050501;28;20090;-82
2024/01/21 09:18:41;;;;;;;;;;;;;;;1.03;87.85;94249.19;5049994;28;19921;-81
2024/01/21 09:21:10;;;;;;;;;;;;;;;1.17;86.94;94253.13;5052722;28;19931;-81
2024/01/21 09:23:50;;;;;;;;;;;;;;;;;;;;;
2024/01/21 09:29:16;;;;;;;;;;;;;;;1.05;80.23;94250.69;5036871;28;20059;-80
2024/01/21 09:31:57;;;;;;;;;;;;;;;0.44;80.52;94244.56;5036966;28;19921;-81
2024/01/21 09:34:45;;;;;;;;;;;;;;;0.20;83.72;94243.06;5048355;28;20022;-81
2024/01/21 09:50:22;;;;;;;;;;;;;;;;;;;;;
2024/01/21 09:58:44;;;;;;;;;;;;;;;0.73;84.06;94222.91;5044810;28;19975;-82
2024/01/21 10:04:43;;;;;;;;;;;;;;;0.77;83.99;94214.97;5008089;28;20393;-82
2024/01/21 10:10:44;;;;;;;;;;;;;;;0.17;77.84;94184.34;5048265;28;19932;-82
2024/01/21 10:16:41;;;;;;;;;;;;;;;0.05;79.20;94221.50;5026960;28;20019;-82
2024/01/21 10:19:27;;;;;;;;;;;;;;;0.23;77.24;94209.16;4953822;28;19969;-82
2024/01/21 10:22:23;;;;;;;;;;;;;;;0.22;71.01;94215.13;4973646;28;19926;-82
2024/01/21 10:36:26;;;;;;;;;;;;;;;0.70;54.16;94201.22;4991247;28;19926;-83
2024/01/21 10:39:19;;;;;;;;;;;;;;;1.12;61.25;94195.31;5043504;28;20013;-83
2024/01/21 10:42:17;;;;;;;;;;;;;;;0.96;50.29;94215.22;5023494;28;19925;-84
2024/01/21 10:45:02;;;;;;;;;;;;;;;0.66;51.36;94198.13;5051332;28;19924;-83
2024/01/21 10:50:17;;;;;;;;;;;;;;;1.06;51.43;94198.31;5037484;28;20346;-82
2024/01/21 10:53:10;;;;;;;;;;;;;;;1.14;49.74;94195.16;5048826;28;19924;-83
2024/01/21 10:58:50;;;;;;;;;;;;;;;1.12;52.07;94197.84;5044742;28;19925;-82
2024/01/21 11:01:19;;;;;;;;;;;;;;;1.20;51.19;94187.06;5048781;28;19974;-83
2024/01/21 11:03:48;;;;;;;;;;;;;;;1.58;58.12;94174.66;5049114;28;19927;-82
2024/01/21 11:06:15;;;;;;;;;;;;;;;1.53;50.77;94192.75;5056214;28;19920;-82
2024/01/21 11:08:43;;;;;;;;;;;;;;;1.77;55.98;94188.28;5049434;28;19963;-81
2024/01/21 11:11:16;;;;;;;;;;;;;;;1.94;59.76;94180.03;5055273;28;19928;-81
2024/01/21 11:13:44;;;;;;;;;;;;;;;2.13;63.94;94166.56;5049415;28;19924;-81
2024/01/21 11:16:11;;;;;;;;;;;;;;;2.25;66.42;94168.97;5052720;28;20733;-81
2024/01/21 11:18:42;;;;;;;;;;;;;;;2.24;65.34;94163.13;5058386;28;19926;-81
2024/01/21 11:21:09;;;;;;;;;;;;;;;2.21;63.56;94163.38;5054972;28;19921;-81
2024/01/21 11:23:35;;;;;;;;;;;;;;;2.14;62.91;94164.84;5049399;28;20394;-81
2024/01/21 11:26:02;;;;;;;;;;;;;;;2.27;67.25;94162.03;5062415;28;19921;-81
2024/01/21 11:28:29;;;;;;;;;;;;;;;2.24;65.54;94169.91;5053914;28;19931;-81
2024/01/21 11:31:03;;;;;;;;;;;;;;;1.94;64.63;94158.97;5048655;28;19921;-81
2024/01/21 11:33:30;;;;;;;;;;;;;;;2.08;64.07;94165.38;5049733;28;19968;-82
2024/01/21 11:35:59;;;;;;;;;;;;;;;1.93;64.51;94157.34;5050230;28;20385;-81
2024/01/21 11:38:26;;;;;;;;;;;;;;;2.05;62.86;94163.09;5048011;28;20011;-80
2024/01/21 11:41:01;;;;;;;;;;;;;;;2.14;67.48;94149.63;5051284;28;19925;-80
2024/01/21 11:43:28;;;;;;;;;;;;;;;2.02;65.15;94150.69;5047932;28;19932;-80
2024/01/21 11:45:55;;;;;;;;;;;;;;;2.06;65.78;94152.84;5050945;28;21045;-81
2024/01/21 11:48:40;;;;;;;;;;;;;;;2.20;64.19;94149.09;5050705;28;20322;-81
2024/01/21 11:51:08;;;;;;;;;;;;;;;2.29;65.93;94159.34;5048299;28;19925;-79
2024/01/21 11:53:35;;;;;;;;;;;;;;;2.11;66.44;94155.78;5057252;28;19929;-79
2024/01/21 11:56:01;;;;;;;;;;;;;;;1.74;66.38;94158.94;5052963;28;19957;-80
2024/01/21 11:58:28;;;;;;;;;;;;;;;1.52;67.03;94158.25;5046875;28;19924;-80
2024/01/21 12:00:55;;;;;;;;;;;;;;;1.71;67.24;94160.00;5051900;28;19924;-80
2024/01/21 12:03:21;;;;;;;;;;;;;;;1.70;66.68;94160.13;5063035;28;20006;-80
2024/01/21 12:05:48;;;;;;;;;;;;;;;1.68;66.07;94167.88;5054637;28;19925;-80
2024/01/21 12:08:16;;;;;;;;;;;;;;;1.64;65.18;94165.72;5054692;28;19921;-80
2024/01/21 12:10:43;;;;;;;;;;;;;;;1.22;64.41;94159.91;5053471;28;19921;-80
2024/01/21 12:13:10;;;;;;;;;;;;;;;1.45;63.77;94165.56;5060947;28;20007;-80
2024/01/21 12:15:37;;;;;;;;;;;;;;;1.65;62.97;94165.59;5052566;28;19985;-80
2024/01/21 12:18:04;;;;;;;;;;;;;;;1.73;62.49;94173.34;5052334;28;19921;-79
2024/01/21 12:20:31;;;;;;;;;;;;;;;1.72;63.11;94171.75;5054183;28;19931;-79
2024/01/21 12:22:58;;;;;;;;;;;;;;;1.49;59.43;94176.25;5052856;28;20011;-79
2024/01/21 12:25:26;;;;;;;;;;;;;;;1.74;61.35;94174.16;5051627;28;19947;-80
2024/01/21 12:27:57;;;;;;;;;;;;;;;1.66;60.81;94179.88;5061018;28;19924;-80
2024/01/21 12:30:24;;;;;;;;;;;;;;;1.46;60.22;94181.56;5057121;28;19925;-79
2024/01/21 12:32:51;;;;;;;;;;;;;;;1.72;65.50;94178.56;5054280;28;20325;-79
2024/01/21 12:35:18;;;;;;;;;;;;;;;1.49;60.00;94188.91;5056504;28;20370;-78
2024/01/21 12:37:44;;;;;;;;;;;;;;;1.63;59.30;94187.75;5055220;28;20339;-78
2024/01/21 12:40:12;;;;;;;;;;;;;;;1.50;60.00;94189.69;5053294;28;19920;-79
2024/01/21 12:42:40;;;;;;;;;;;;;;;1.37;60.02;94190.72;5060608;28;20470;-78
2024/01/21 12:45:07;;;;;;;;;;;;;;;1.62;58.99;94188.66;5052224;28;19948;-79
2024/01/21 12:47:33;;;;;;;;;;;;;;;1.41;62.52;94187.00;5053480;28;19921;-78
2024/01/21 12:50:00;;;;;;;;;;;;;;;1.30;65.00;94182.06;5054650;28;19924;-79
2024/01/21 12:52:27;;;;;;;;;;;;;;;1.29;61.54;94188.84;5053953;28;20406;-79
2024/01/21 12:54:53;;;;;;;;;;;;;;;1.28;61.36;94199.06;5054869;28;19930;-79
2024/01/21 12:57:20;;;;;;;;;;;;;;;1.52;63.25;94197.97;5051274;28;19931;-79
2024/01/21 12:59:48;;;;;;;;;;;;;;;1.40;62.37;94195.53;5051245;28;19925;-78
2024/01/21 13:02:15;;;;;;;;;;;;;;;1.65;63.32;94192.66;5056871;28;19924;-79
2024/01/21 13:04:42;;;;;;;;;;;;;;;1.69;63.65;94196.53;5053162;28;19921;-79
2024/01/21 13:07:08;;;;;;;;;;;;;;;1.72;62.45;94197.06;5052899;28;19946;-79
2024/01/21 13:09:35;;;;;;;;;;;;;;;1.60;60.72;94206.53;5052646;28;19927;-79
2024/01/21 13:12:01;;;;;;;;;;;;;;;1.78;64.91;94202.53;5052069;28;20011;-80
2024/01/21 13:14:30;;;;;;;;;;;;;;;1.85;60.86;94209.50;5060268;28;19924;-80
2024/01/21 13:16:58;;;;;;;;;;;;;;;2.08;65.28;94199.13;5050671;28;19924;-80
2024/01/21 13:19:25;;;;;;;;;;;;;;;2.11;56.58;94208.19;5060470;28;20007;-80
2024/01/21 13:21:51;;;;;;;;;;;;;;;2.26;60.38;94204.34;5059773;28;19920;-80
2024/01/21 13:24:18;;;;;;;;;;;;;;;2.37;58.70;94208.44;5051793;28;20003;-80
2024/01/21 13:26:51;;;;;;;;;;;;;;;2.43;55.73;94211.38;5052340;28;19920;-80
2024/01/21 13:32:05;;;;;;;;;;;;;;;2.51;55.71;94217.38;5055527;28;19931;-80
2024/01/21 13:34:31;;;;;;;;;;;;;;;2.41;55.56;94216.63;5050886;28;20755;-80
2024/01/21 13:36:59;;;;;;;;;;;;;;;2.46;61.91;94211.13;5052255;28;20433;-80
2024/01/21 13:39:26;;;;;;;;;;;;;;;2.49;58.97;94224.34;5057543;28;19951;-80
2024/01/21 13:41:53;;;;;;;;;;;;;;;2.39;59.92;94215.94;5054404;28;20446;-80
2024/01/21 13:44:19;;;;;;;;;;;;;;;2.24;55.91;94225.69;5050323;28;20732;-80
2024/01/21 13:46:46;;;;;;;;;;;;;;;2.27;57.55;94233.03;5052157;28;19930;-80
2024/01/21 13:49:15;;;;;;;;;;;;;;;2.13;53.63;94241.81;5049859;28;19920;-81
2024/01/21 13:51:41;;;;;;;;;;;;;;;2.18;60.76;94226.22;5054011;28;19935;-81
2024/01/21 13:54:08;;;;;;;;;;;;;;;2.29;64.30;94221.00;5053962;28;20031;-79
2024/01/21 13:56:43;;;;;;;;;;;;;;;2.44;65.41;94223.16;5054910;28;19927;-82